sensor_id;sensor_type;location;lat;lon;timestamp;temperature;humidity
3268;DHT22;1646;52.450;13.326;2023-04-24T00:00:06;14.30;99.90
3268;DHT22;1646;52.450;13.326;2023-04-24T00:05:07;14.30;99.90
3268;DHT22;1646;52.450;13.326;2023-04-24T00:10:07;14.20;99.90
3268;DHT22;1646;52.450;13.326;2023-04-24T00:15:08;14.10;99.90
3268;DHT22;1646;52.450;13.326;2023-04-24T00:20:07;14.00;99.90
3268;DHT22;1646;52.450;13.326;2023-04-24T00:25:07;13.90;99.90
3268;DHT22;1646;52.450;13.326;2023-04-24T00:30:08;13.90;99.90
3268;DHT22;1646;52.450;13.326;2023-04-24T00:35:07;13.90;99.90
3268;DHT22;1646;52.450;13.326;2023-04-24T00:40:06;13.90;99.90
3268;DHT22;1646;52.450;13.326;2023-04-24T00:45:07;13.90;99.90
3268;DHT22;1646;52.450;13.326;2023-04-24T00:50:07;13.90;99.90
3268;DHT22;1646;52.450;13.326;2023-04-24T00:55:06;13.80;99.90
3268;DHT22;1646;52.450;13.326;2023-04-24T01:00:08;13.70;99.90
3268;DHT22;1646;52.450;13.326;2023-04-24T01:05:09;13.60;99.90
3268;DHT22;1646;52.450;13.326;2023-04-24T01:10:09;13.50;99.90
3268;DHT22;1646;52.450;13.326;2023-04-24T01:15:10;13.30;99.90
3268;DHT22;1646;52.450;13.326;2023-04-24T01:20:09;13.30;99.90
3268;DHT22;1646;52.450;13.326;2023-04-24T01:25:12;13.40;99.90
3268;DHT22;1646;52.450;13.326;2023-04-24T01:30:11;13.40;99.90
3268;DHT22;1646;52.450;13.326;2023-04-24T01:35:10;13.50;99.90
3268;DHT22;1646;52.450;13.326;2023-04-24T01:40:08;13.50;99.90
3268;DHT22;1646;52.450;13.326;2023-04-24T01:45:11;13.50;99.90
3268;DHT22;1646;52.450;13.326;2023-04-24T01:50:09;13.50;99.90
3268;DHT22;1646;52.450;13.326;2023-04-24T01:55:09;13.50;99.90
3268;DHT22;1646;52.450;13.326;2023-04-24T02:00:10;13.50;99.90
3268;DHT22;1646;52.450;13.326;2023-04-24T02:05:09;13.40;99.90
3268;DHT22;1646;52.450;13.326;2023-04-24T02:10:08;13.30;99.90
3268;DHT22;1646;52.450;13.326;2023-04-24T02:15:13;13.30;99.90
3268;DHT22;1646;52.450;13.326;2023-04-24T02:20:11;13.50;99.90
3268;DHT22;1646;52.450;13.326;2023-04-24T02:25:10;13.50;99.90
3268;DHT22;1646;52.450;13.326;2023-04-24T02:30:09;13.60;99.90
3268;DHT22;1646;52.450;13.326;2023-04-24T02:35:09;13.70;99.90
3268;DHT22;1646;52.450;13.326;2023-04-24T02:40:08;13.70;99.90
3268;DHT22;1646;52.450;13.326;2023-04-24T02:45:08;13.60;99.90
3268;DHT22;1646;52.450;13.326;2023-04-24T02:50:08;13.60;99.90
3268;DHT22;1646;52.450;13.326;2023-04-24T02:55:07;13.60;99.90
3268;DHT22;1646;52.450;13.326;2023-04-24T03:00:07;13.50;99.90
3268;DHT22;1646;52.450;13.326;2023-04-24T03:05:06;13.40;99.90
3268;DHT22;1646;52.450;13.326;2023-04-24T03:10:08;13.30;99.90
3268;DHT22;1646;52.450;13.326;2023-04-24T03:15:07;13.40;99.90
3268;DHT22;1646;52.450;13.326;2023-04-24T03:20:07;13.40;99.90
3268;DHT22;1646;52.450;13.326;2023-04-24T03:25:09;13.40;99.90
3268;DHT22;1646;52.450;13.326;2023-04-24T03:30:08;13.40;99.90
3268;DHT22;1646;52.450;13.326;2023-04-24T03:35:22;13.40;99.90
3268;DHT22;1646;52.450;13.326;2023-04-24T03:40:23;13.50;99.90
3268;DHT22;1646;52.450;13.326;2023-04-24T03:45:21;13.50;99.90
3268;DHT22;1646;52.450;13.326;2023-04-24T03:50:21;13.50;99.90
3268;DHT22;1646;52.450;13.326;2023-04-24T03:55:20;13.50;99.90
3268;DHT22;1646;52.450;13.326;2023-04-24T04:00:19;13.60;99.90
3268;DHT22;1646;52.450;13.326;2023-04-24T04:05:28;13.60;99.90
3268;DHT22;1646;52.450;13.326;2023-04-24T04:10:26;13.60;99.90
3268;DHT22;1646;52.450;13.326;2023-04-24T04:15:26;13.60;99.90
3268;DHT22;1646;52.450;13.326;2023-04-24T04:20:25;13.60;99.90
3268;DHT22;1646;52.450;13.326;2023-04-24T04:25:23;13.50;99.90
3268;DHT22;1646;52.450;13.326;2023-04-24T04:30:21;13.60;99.90
3268;DHT22;1646;52.450;13.326;2023-04-24T04:35:28;13.60;99.90
3268;DHT22;1646;52.450;13.326;2023-04-24T04:40:26;13.60;99.90
3268;DHT22;1646;52.450;13.326;2023-04-24T04:45:30;13.70;99.90
3268;DHT22;1646;52.450;13.326;2023-04-24T04:50:49;13.90;99.90
3268;DHT22;1646;52.450;13.326;2023-04-24T04:55:51;13.90;99.90
3268;DHT22;1646;52.450;13.326;2023-04-24T05:00:53;14.00;99.90
3268;DHT22;1646;52.450;13.326;2023-04-24T05:05:58;14.00;99.90
3268;DHT22;1646;52.450;13.326;2023-04-24T05:10:59;14.00;99.90
3268;DHT22;1646;52.450;13.326;2023-04-24T05:15:59;14.00;99.90
3268;DHT22;1646;52.450;13.326;2023-04-24T05:21:01;14.00;99.90
3268;DHT22;1646;52.450;13.326;2023-04-24T05:25:59;14.10;99.90
3268;DHT22;1646;52.450;13.326;2023-04-24T05:30:59;14.20;99.90
3268;DHT22;1646;52.450;13.326;2023-04-24T05:35:58;14.30;99.90
3268;DHT22;1646;52.450;13.326;2023-04-24T05:40:58;14.20;99.90
3268;DHT22;1646;52.450;13.326;2023-04-24T05:45:57;14.30;99.90
3268;DHT22;1646;52.450;13.326;2023-04-24T05:50:55;14.20;99.90
3268;DHT22;1646;52.450;13.326;2023-04-24T05:55:54;14.20;99.90
3268;DHT22;1646;52.450;13.326;2023-04-24T06:00:54;14.20;99.90
3268;DHT22;1646;52.450;13.326;2023-04-24T06:05:53;14.30;99.90
3268;DHT22;1646;52.450;13.326;2023-04-24T06:10:52;14.30;99.90
3268;DHT22;1646;52.450;13.326;2023-04-24T06:15:54;14.40;99.90
3268;DHT22;1646;52.450;13.326;2023-04-24T06:21:00;14.10;99.90
3268;DHT22;1646;52.450;13.326;2023-04-24T06:25:59;14.00;99.90
3268;DHT22;1646;52.450;13.326;2023-04-24T06:30:59;14.20;99.90
3268;DHT22;1646;52.450;13.326;2023-04-24T06:35:57;14.50;99.90
3268;DHT22;1646;52.450;13.326;2023-04-24T06:40:55;14.90;99.90
3268;DHT22;1646;52.450;13.326;2023-04-24T06:45:54;15.30;99.90
3268;DHT22;1646;52.450;13.326;2023-04-24T06:50:54;15.20;99.90
3268;DHT22;1646;52.450;13.326;2023-04-24T06:55:52;15.10;99.90
3268;DHT22;1646;52.450;13.326;2023-04-24T07:00:50;15.20;99.90
3268;DHT22;1646;52.450;13.326;2023-04-24T07:05:48;15.50;99.90
3268;DHT22;1646;52.450;13.326;2023-04-24T07:10:49;15.50;99.90
3268;DHT22;1646;52.450;13.326;2023-04-24T07:15:48;15.70;99.90
3268;DHT22;1646;52.450;13.326;2023-04-24T07:20:47;16.00;99.90
3268;DHT22;1646;52.450;13.326;2023-04-24T07:25:48;16.40;99.90
3268;DHT22;1646;52.450;13.326;2023-04-24T07:30:46;16.20;99.90
3268;DHT22;1646;52.450;13.326;2023-04-24T07:35:44;16.30;99.90
3268;DHT22;1646;52.450;13.326;2023-04-24T07:40:43;16.50;99.90
3268;DHT22;1646;52.450;13.326;2023-04-24T07:45:45;16.90;99.90
3268;DHT22;1646;52.450;13.326;2023-04-24T07:50:44;17.20;99.90
3268;DHT22;1646;52.450;13.326;2023-04-24T07:55:42;17.40;99.90
3268;DHT22;1646;52.450;13.326;2023-04-24T08:00:40;17.40;99.90
3268;DHT22;1646;52.450;13.326;2023-04-24T08:05:41;17.60;99.90
3268;DHT22;1646;52.450;13.326;2023-04-24T08:10:40;17.70;99.90
3268;DHT22;1646;52.450;13.326;2023-04-24T08:15:38;18.10;99.90
3268;DHT22;1646;52.450;13.326;2023-04-24T08:20:36;18.10;99.90
3268;DHT22;1646;52.450;13.326;2023-04-24T08:25:36;18.10;99.90
3268;DHT22;1646;52.450;13.326;2023-04-24T08:30:34;18.10;99.90
3268;DHT22;1646;52.450;13.326;2023-04-24T08:35:32;18.20;99.90
3268;DHT22;1646;52.450;13.326;2023-04-24T08:40:33;18.20;99.90
3268;DHT22;1646;52.450;13.326;2023-04-24T08:45:34;18.00;99.90
3268;DHT22;1646;52.450;13.326;2023-04-24T08:50:32;18.00;99.90
3268;DHT22;1646;52.450;13.326;2023-04-24T08:55:33;18.30;99.90
3268;DHT22;1646;52.450;13.326;2023-04-24T09:00:31;18.60;99.90
3268;DHT22;1646;52.450;13.326;2023-04-24T09:05:32;18.40;99.90
3268;DHT22;1646;52.450;13.326;2023-04-24T09:10:31;18.20;99.90
3268;DHT22;1646;52.450;13.326;2023-04-24T09:15:29;18.10;99.90
3268;DHT22;1646;52.450;13.326;2023-04-24T09:20:28;18.10;99.90
3268;DHT22;1646;52.450;13.326;2023-04-24T09:25:33;17.70;99.90
3268;DHT22;1646;52.450;13.326;2023-04-24T09:30:32;18.10;99.90
3268;DHT22;1646;52.450;13.326;2023-04-24T09:35:32;18.50;99.90
3268;DHT22;1646;52.450;13.326;2023-04-24T09:40:34;18.30;99.90
3268;DHT22;1646;52.450;13.326;2023-04-24T09:45:37;18.30;99.90
3268;DHT22;1646;52.450;13.326;2023-04-24T09:50:36;18.50;99.90
3268;DHT22;1646;52.450;13.326;2023-04-24T09:55:39;18.60;99.90
3268;DHT22;1646;52.450;13.326;2023-04-24T10:00:38;18.70;99.90
3268;DHT22;1646;52.450;13.326;2023-04-24T10:05:37;18.80;99.90
3268;DHT22;1646;52.450;13.326;2023-04-24T10:10:41;20.10;99.90
3268;DHT22;1646;52.450;13.326;2023-04-24T10:15:41;21.60;99.90
3268;DHT22;1646;52.450;13.326;2023-04-24T10:20:40;21.10;99.90
3268;DHT22;1646;52.450;13.326;2023-04-24T10:25:39;20.90;99.90
3268;DHT22;1646;52.450;13.326;2023-04-24T10:30:39;19.90;99.90
3268;DHT22;1646;52.450;13.326;2023-04-24T10:35:44;19.20;99.90
3268;DHT22;1646;52.450;13.326;2023-04-24T10:40:42;18.60;99.90
3268;DHT22;1646;52.450;13.326;2023-04-24T10:46:00;18.00;99.90
3268;DHT22;1646;52.450;13.326;2023-04-24T10:50:58;17.50;99.90
3268;DHT22;1646;52.450;13.326;2023-04-24T10:55:58;17.50;99.90
3268;DHT22;1646;52.450;13.326;2023-04-24T11:00:59;17.60;99.90
3268;DHT22;1646;52.450;13.326;2023-04-24T11:06:00;18.60;99.90
3268;DHT22;1646;52.450;13.326;2023-04-24T11:11:04;19.40;99.90
3268;DHT22;1646;52.450;13.326;2023-04-24T11:16:20;19.90;99.90
3268;DHT22;1646;52.450;13.326;2023-04-24T11:21:19;19.80;99.90
3268;DHT22;1646;52.450;13.326;2023-04-24T11:26:19;19.40;99.90
3268;DHT22;1646;52.450;13.326;2023-04-24T11:31:39;18.80;99.90
3268;DHT22;1646;52.450;13.326;2023-04-24T11:36:39;18.90;99.90
3268;DHT22;1646;52.450;13.326;2023-04-24T11:41:38;19.30;99.90
3268;DHT22;1646;52.450;13.326;2023-04-24T11:46:38;19.10;99.90
3268;DHT22;1646;52.450;13.326;2023-04-24T11:51:37;19.20;99.90
3268;DHT22;1646;52.450;13.326;2023-04-24T11:56:49;19.20;99.90
3268;DHT22;1646;52.450;13.326;2023-04-24T12:01:50;18.90;99.90
3268;DHT22;1646;52.450;13.326;2023-04-24T12:07:00;18.90;99.90
3268;DHT22;1646;52.450;13.326;2023-04-24T12:11:59;19.00;99.90
3268;DHT22;1646;52.450;13.326;2023-04-24T12:16:59;19.30;99.90
3268;DHT22;1646;52.450;13.326;2023-04-24T12:22:01;20.10;99.90
3268;DHT22;1646;52.450;13.326;2023-04-24T12:26:59;20.00;99.90
3268;DHT22;1646;52.450;13.326;2023-04-24T12:31:59;19.60;99.90
3268;DHT22;1646;52.450;13.326;2023-04-24T12:37:10;19.30;99.90
3268;DHT22;1646;52.450;13.326;2023-04-24T12:42:08;19.10;99.70
3268;DHT22;1646;52.450;13.326;2023-04-24T12:47:07;19.20;99.70
3268;DHT22;1646;52.450;13.326;2023-04-24T12:52:07;19.50;96.20
3268;DHT22;1646;52.450;13.326;2023-04-24T12:57:05;19.00;95.70
3268;DHT22;1646;52.450;13.326;2023-04-24T13:02:03;19.00;94.50
3268;DHT22;1646;52.450;13.326;2023-04-24T13:07:04;19.50;94.30
3268;DHT22;1646;52.450;13.326;2023-04-24T13:12:02;19.50;92.50
3268;DHT22;1646;52.450;13.326;2023-04-24T13:17:02;19.80;93.20
3268;DHT22;1646;52.450;13.326;2023-04-24T13:22:00;20.00;90.70
3268;DHT22;1646;52.450;13.326;2023-04-24T13:27:00;19.40;91.10
3268;DHT22;1646;52.450;13.326;2023-04-24T13:31:59;19.50;89.10
3268;DHT22;1646;52.450;13.326;2023-04-24T13:36:58;19.50;85.00
3268;DHT22;1646;52.450;13.326;2023-04-24T13:41:57;19.30;86.50
3268;DHT22;1646;52.450;13.326;2023-04-24T13:46:57;19.20;90.20
3268;DHT22;1646;52.450;13.326;2023-04-24T13:51:56;19.20;82.80
3268;DHT22;1646;52.450;13.326;2023-04-24T13:56:57;19.40;84.20
3268;DHT22;1646;52.450;13.326;2023-04-24T14:01:57;19.10;85.10
3268;DHT22;1646;52.450;13.326;2023-04-24T14:06:55;19.00;85.10
3268;DHT22;1646;52.450;13.326;2023-04-24T14:11:53;19.00;84.50
3268;DHT22;1646;52.450;13.326;2023-04-24T14:16:51;18.60;85.10
3268;DHT22;1646;52.450;13.326;2023-04-24T14:21:51;18.60;84.10
3268;DHT22;1646;52.450;13.326;2023-04-24T14:26:49;18.60;83.20
3268;DHT22;1646;52.450;13.326;2023-04-24T14:31:47;18.80;82.30
3268;DHT22;1646;52.450;13.326;2023-04-24T14:36:46;18.60;82.80
3268;DHT22;1646;52.450;13.326;2023-04-24T14:41:45;18.60;86.20
3268;DHT22;1646;52.450;13.326;2023-04-24T14:46:43;18.90;83.80
3268;DHT22;1646;52.450;13.326;2023-04-24T14:51:42;19.10;83.40
3268;DHT22;1646;52.450;13.326;2023-04-24T14:56:40;18.70;84.20
3268;DHT22;1646;52.450;13.326;2023-04-24T15:01:42;18.30;84.10
3268;DHT22;1646;52.450;13.326;2023-04-24T15:06:40;18.20;85.90
3268;DHT22;1646;52.450;13.326;2023-04-24T15:11:39;18.20;85.80
3268;DHT22;1646;52.450;13.326;2023-04-24T15:16:37;18.20;87.10
3268;DHT22;1646;52.450;13.326;2023-04-24T15:21:37;18.20;84.40
3268;DHT22;1646;52.450;13.326;2023-04-24T15:26:37;18.30;83.70
3268;DHT22;1646;52.450;13.326;2023-04-24T15:31:35;18.10;83.80
3268;DHT22;1646;52.450;13.326;2023-04-24T15:36:38;17.70;85.90
3268;DHT22;1646;52.450;13.326;2023-04-24T15:41:36;17.50;86.50
3268;DHT22;1646;52.450;13.326;2023-04-24T15:46:34;17.30;86.90
3268;DHT22;1646;52.450;13.326;2023-04-24T15:51:33;17.20;87.20
3268;DHT22;1646;52.450;13.326;2023-04-24T15:56:32;17.10;88.00
3268;DHT22;1646;52.450;13.326;2023-04-24T16:01:32;17.10;88.20
3268;DHT22;1646;52.450;13.326;2023-04-24T16:06:31;17.10;88.30
3268;DHT22;1646;52.450;13.326;2023-04-24T16:11:29;17.00;90.30
3268;DHT22;1646;52.450;13.326;2023-04-24T16:16:29;16.90;90.40
3268;DHT22;1646;52.450;13.326;2023-04-24T16:21:28;16.80;90.70
3268;DHT22;1646;52.450;13.326;2023-04-24T16:26:27;17.00;90.80
3268;DHT22;1646;52.450;13.326;2023-04-24T16:31:25;16.90;90.20
3268;DHT22;1646;52.450;13.326;2023-04-24T16:36:25;16.70;91.00
3268;DHT22;1646;52.450;13.326;2023-04-24T16:41:24;16.50;91.50
3268;DHT22;1646;52.450;13.326;2023-04-24T16:46:23;16.20;92.60
3268;DHT22;1646;52.450;13.326;2023-04-24T16:51:21;15.80;94.80
3268;DHT22;1646;52.450;13.326;2023-04-24T16:56:20;15.20;97.00
3268;DHT22;1646;52.450;13.326;2023-04-24T17:01:19;15.00;98.30
3268;DHT22;1646;52.450;13.326;2023-04-24T17:06:17;14.80;99.90
3268;DHT22;1646;52.450;13.326;2023-04-24T17:11:15;14.60;99.90
3268;DHT22;1646;52.450;13.326;2023-04-24T17:16:15;14.50;99.90
3268;DHT22;1646;52.450;13.326;2023-04-24T17:21:13;14.50;99.90
3268;DHT22;1646;52.450;13.326;2023-04-24T17:26:13;14.30;99.90
3268;DHT22;1646;52.450;13.326;2023-04-24T17:31:12;14.10;99.90
3268;DHT22;1646;52.450;13.326;2023-04-24T17:36:11;14.00;99.90
3268;DHT22;1646;52.450;13.326;2023-04-24T17:41:09;13.90;99.90
3268;DHT22;1646;52.450;13.326;2023-04-24T17:46:08;13.90;99.90
3268;DHT22;1646;52.450;13.326;2023-04-24T17:51:06;13.70;99.90
3268;DHT22;1646;52.450;13.326;2023-04-24T17:56:06;13.60;99.90
3268;DHT22;1646;52.450;13.326;2023-04-24T18:01:04;13.30;99.90
3268;DHT22;1646;52.450;13.326;2023-04-24T18:06:03;13.00;99.90
3268;DHT22;1646;52.450;13.326;2023-04-24T18:11:02;12.80;99.90
3268;DHT22;1646;52.450;13.326;2023-04-24T18:16:01;12.70;99.90
3268;DHT22;1646;52.450;13.326;2023-04-24T18:20:59;12.70;99.90
3268;DHT22;1646;52.450;13.326;2023-04-24T18:25:58;12.80;99.90
3268;DHT22;1646;52.450;13.326;2023-04-24T18:30:57;12.70;99.90
3268;DHT22;1646;52.450;13.326;2023-04-24T18:35:56;12.60;99.90
3268;DHT22;1646;52.450;13.326;2023-04-24T18:40:55;12.50;99.90
3268;DHT22;1646;52.450;13.326;2023-04-24T18:45:53;12.30;99.90
3268;DHT22;1646;52.450;13.326;2023-04-24T18:50:51;12.20;99.90
3268;DHT22;1646;52.450;13.326;2023-04-24T18:55:51;12.10;99.90
3268;DHT22;1646;52.450;13.326;2023-04-24T19:00:49;12.10;99.90
3268;DHT22;1646;52.450;13.326;2023-04-24T19:05:47;12.00;99.90
3268;DHT22;1646;52.450;13.326;2023-04-24T19:10:45;11.90;99.90
3268;DHT22;1646;52.450;13.326;2023-04-24T19:15:45;11.80;99.90
3268;DHT22;1646;52.450;13.326;2023-04-24T19:20:43;11.70;99.90
3268;DHT22;1646;52.450;13.326;2023-04-24T19:25:42;11.50;99.90
3268;DHT22;1646;52.450;13.326;2023-04-24T19:30:40;11.40;99.90
3268;DHT22;1646;52.450;13.326;2023-04-24T19:35:40;11.40;99.90
3268;DHT22;1646;52.450;13.326;2023-04-24T19:40:38;11.40;99.90
3268;DHT22;1646;52.450;13.326;2023-04-24T19:45:36;11.40;99.90
3268;DHT22;1646;52.450;13.326;2023-04-24T19:50:36;11.30;99.90
3268;DHT22;1646;52.450;13.326;2023-04-24T19:55:35;11.30;99.90
3268;DHT22;1646;52.450;13.326;2023-04-24T20:00:33;11.20;99.90
3268;DHT22;1646;52.450;13.326;2023-04-24T20:05:32;11.10;99.90
3268;DHT22;1646;52.450;13.326;2023-04-24T20:10:30;11.00;99.90
3268;DHT22;1646;52.450;13.326;2023-04-24T20:15:29;11.20;99.90
3268;DHT22;1646;52.450;13.326;2023-04-24T20:20:29;11.10;99.90
3268;DHT22;1646;52.450;13.326;2023-04-24T20:25:27;11.00;99.90
3268;DHT22;1646;52.450;13.326;2023-04-24T20:30:25;11.20;99.90
3268;DHT22;1646;52.450;13.326;2023-04-24T20:35:24;11.00;99.90
3268;DHT22;1646;52.450;13.326;2023-04-24T20:40:23;11.10;99.90
3268;DHT22;1646;52.450;13.326;2023-04-24T20:45:22;11.10;99.90
3268;DHT22;1646;52.450;13.326;2023-04-24T20:50:21;11.20;99.90
3268;DHT22;1646;52.450;13.326;2023-04-24T20:55:22;11.10;99.90
3268;DHT22;1646;52.450;13.326;2023-04-24T21:00:21;11.10;99.90
3268;DHT22;1646;52.450;13.326;2023-04-24T21:05:22;11.00;99.90
3268;DHT22;1646;52.450;13.326;2023-04-24T21:10:22;11.10;99.90
3268;DHT22;1646;52.450;13.326;2023-04-24T21:15:22;11.10;99.90
3268;DHT22;1646;52.450;13.326;2023-04-24T21:20:20;11.00;99.90
3268;DHT22;1646;52.450;13.326;2023-04-24T21:25:18;11.00;99.90
3268;DHT22;1646;52.450;13.326;2023-04-24T21:30:18;10.90;99.90
3268;DHT22;1646;52.450;13.326;2023-04-24T21:35:18;10.70;99.90
3268;DHT22;1646;52.450;13.326;2023-04-24T21:40:16;10.70;99.90
3268;DHT22;1646;52.450;13.326;2023-04-24T21:45:14;10.70;99.90
3268;DHT22;1646;52.450;13.326;2023-04-24T21:50:14;10.60;99.90
3268;DHT22;1646;52.450;13.326;2023-04-24T21:55:12;10.50;99.90
3268;DHT22;1646;52.450;13.326;2023-04-24T22:00:11;10.50;99.90
3268;DHT22;1646;52.450;13.326;2023-04-24T22:05:09;10.40;99.90
3268;DHT22;1646;52.450;13.326;2023-04-24T22:10:14;10.40;99.90
3268;DHT22;1646;52.450;13.326;2023-04-24T22:15:13;10.40;99.90
3268;DHT22;1646;52.450;13.326;2023-04-24T22:20:11;10.50;99.90
3268;DHT22;1646;52.450;13.326;2023-04-24T22:25:10;10.30;99.90
3268;DHT22;1646;52.450;13.326;2023-04-24T22:30:10;10.40;99.90
3268;DHT22;1646;52.450;13.326;2023-04-24T22:35:09;10.20;99.90
3268;DHT22;1646;52.450;13.326;2023-04-24T22:40:07;10.00;99.90
3268;DHT22;1646;52.450;13.326;2023-04-24T22:45:07;10.00;99.90
3268;DHT22;1646;52.450;13.326;2023-04-24T22:50:09;10.00;99.90
3268;DHT22;1646;52.450;13.326;2023-04-24T22:55:08;10.00;99.90
3268;DHT22;1646;52.450;13.326;2023-04-24T23:00:07;10.10;99.90
3268;DHT22;1646;52.450;13.326;2023-04-24T23:05:09;10.10;99.90
3268;DHT22;1646;52.450;13.326;2023-04-24T23:10:08;10.00;99.90
3268;DHT22;1646;52.450;13.326;2023-04-24T23:15:08;10.00;99.90
3268;DHT22;1646;52.450;13.326;2023-04-24T23:20:10;10.00;99.90
3268;DHT22;1646;52.450;13.326;2023-04-24T23:25:09;10.00;99.90
3268;DHT22;1646;52.450;13.326;2023-04-24T23:30:08;10.20;99.90
3268;DHT22;1646;52.450;13.326;2023-04-24T23:35:06;10.30;99.90
3268;DHT22;1646;52.450;13.326;2023-04-24T23:40:08;10.20;99.90
3268;DHT22;1646;52.450;13.326;2023-04-24T23:45:07;10.00;99.90
3268;DHT22;1646;52.450;13.326;2023-04-24T23:50:08;9.90;99.90
3268;DHT22;1646;52.450;13.326;2023-04-24T23:55:08;9.80;99.90
